Contern, Luxembourg
Current Conditions -  °F | °C
As of 7:50 PM on Tuesday 27 Jan 2015 (Local Time) from ELLX Reporting Station
Broken Clouds Broken Clouds  
Wind Chill: 31°   Ceiling: 500
Heat Index: 36°   Visibility: 3mi
Dew Point: 34°   Wind: 6mph
Humidity: 93%   Direction: 240°WSW
Pressure: 30.21"   Gusts: NA
Location:  49.58°N, 6.23°E
Report Text: ELLX 271850Z 24005KT 210V280 5000 BKN005 02/01 Q1023 NOSIG
Loading
Personal Weather Stations






























Interactive Weather Map New forecast layout! Learn more

10-Day Weather Forecast

Advertisements
Track Severe Weather on mobile